sensor_id;sensor_type;location;lat;lon;timestamp;pressure;altitude;pressure_sealevel;temperature;humidity
33191;BME280;19554;42.652;23.364;2023-04-05T00:00:53;94120.41;;;0.23;79.79
33191;BME280;19554;42.652;23.364;2023-04-05T00:03:19;94114.81;;;0.19;80.13
33191;BME280;19554;42.652;23.364;2023-04-05T00:05:45;94140.03;;;0.49;80.25
33191;BME280;19554;42.652;23.364;2023-04-05T00:08:10;94142.09;;;0.47;79.98
33191;BME280;19554;42.652;23.364;2023-04-05T00:10:47;94113.94;;;0.42;79.95
33191;BME280;19554;42.652;23.364;2023-04-05T00:13:12;94136.50;;;0.43;79.83
33191;BME280;19554;42.652;23.364;2023-04-05T00:15:38;94131.59;;;0.47;79.91
33191;BME280;19554;42.652;23.364;2023-04-05T00:18:03;94114.72;;;0.43;79.59
33191;BME280;19554;42.652;23.364;2023-04-05T00:20:29;94063.84;;;0.15;79.20
33191;BME280;19554;42.652;23.364;2023-04-05T00:22:54;94132.88;;;0.61;79.54
33191;BME280;19554;42.652;23.364;2023-04-05T00:25:19;94132.06;;;0.61;79.46
33191;BME280;19554;42.652;23.364;2023-04-05T00:27:46;94129.31;;;0.67;79.30
33191;BME280;19554;42.652;23.364;2023-04-05T00:30:11;94121.06;;;0.76;79.10
33191;BME280;19554;42.652;23.364;2023-04-05T00:32:37;94125.91;;;0.84;78.71
33191;BME280;19554;42.652;23.364;2023-04-05T00:35:03;94102.66;;;0.76;78.61
33191;BME280;19554;42.652;23.364;2023-04-05T00:37:28;93986.38;;;-0.04;78.03
33191;BME280;19554;42.652;23.364;2023-04-05T00:39:54;94121.13;;;0.81;77.87
33191;BME280;19554;42.652;23.364;2023-04-05T00:42:21;94144.03;;;1.02;77.17
33191;BME280;19554;42.652;23.364;2023-04-05T00:44:47;94147.06;;;0.94;76.94
33191;BME280;19554;42.652;23.364;2023-04-05T00:47:12;94132.41;;;0.81;77.04
33191;BME280;19554;42.652;23.364;2023-04-05T00:49:39;94111.72;;;0.68;77.50
33191;BME280;19554;42.652;23.364;2023-04-05T00:52:04;94143.25;;;0.85;77.48
33191;BME280;19554;42.652;23.364;2023-04-05T00:54:31;94070.03;;;0.38;77.24
33191;BME280;19554;42.652;23.364;2023-04-05T00:57:00;94143.53;;;0.71;77.26
33191;BME280;19554;42.652;23.364;2023-04-05T00:59:26;94135.66;;;0.71;77.10
33191;BME280;19554;42.652;23.364;2023-04-05T01:02:01;94150.75;;;0.93;77.11
33191;BME280;19554;42.652;23.364;2023-04-05T01:04:29;94137.13;;;0.96;77.09
33191;BME280;19554;42.652;23.364;2023-04-05T01:09:44;94104.31;;;0.48;76.24
33191;BME280;19554;42.652;23.364;2023-04-05T01:12:16;94152.94;;;0.67;76.43
33191;BME280;19554;42.652;23.364;2023-04-05T01:14:52;94153.88;;;0.61;76.67
33191;BME280;19554;42.652;23.364;2023-04-05T01:17:19;94146.56;;;0.63;76.94
33191;BME280;19554;42.652;23.364;2023-04-05T01:19:47;94143.38;;;0.61;76.76
33191;BME280;19554;42.652;23.364;2023-04-05T01:22:54;94147.84;;;0.61;76.59
33191;BME280;19554;42.652;23.364;2023-04-05T01:30:17;94134.38;;;0.57;76.09
33191;BME280;19554;42.652;23.364;2023-04-05T01:38:08;94146.75;;;0.74;76.00
33191;BME280;19554;42.652;23.364;2023-04-05T01:40:36;94078.84;;;0.32;75.74
33191;BME280;19554;42.652;23.364;2023-04-05T01:43:11;94145.81;;;0.80;75.56
33191;BME280;19554;42.652;23.364;2023-04-05T01:45:36;94134.66;;;0.73;75.94
33191;BME280;19554;42.652;23.364;2023-04-05T01:48:02;94148.03;;;0.88;75.98
33191;BME280;19554;42.652;23.364;2023-04-05T01:50:27;94148.34;;;0.91;76.04
33191;BME280;19554;42.652;23.364;2023-04-05T01:52:53;94151.22;;;0.90;75.97
33191;BME280;19554;42.652;23.364;2023-04-05T01:55:18;94156.47;;;0.90;75.87
33191;BME280;19554;42.652;23.364;2023-04-05T01:57:43;94152.34;;;0.94;75.49
33191;BME280;19554;42.652;23.364;2023-04-05T02:00:09;94138.63;;;0.92;75.82
33191;BME280;19554;42.652;23.364;2023-04-05T02:02:35;94145.03;;;0.96;74.82
33191;BME280;19554;42.652;23.364;2023-04-05T02:05:00;94128.06;;;0.87;75.05
33191;BME280;19554;42.652;23.364;2023-04-05T02:07:26;94135.47;;;0.90;75.30
33191;BME280;19554;42.652;23.364;2023-04-05T02:09:51;94114.28;;;0.80;74.93
33191;BME280;19554;42.652;23.364;2023-04-05T02:12:16;94150.50;;;1.11;75.09
33191;BME280;19554;42.652;23.364;2023-04-05T02:14:42;94157.28;;;1.07;74.52
33191;BME280;19554;42.652;23.364;2023-04-05T02:17:07;94117.13;;;0.78;75.14
33191;BME280;19554;42.652;23.364;2023-04-05T02:19:32;94141.19;;;0.87;74.92
33191;BME280;19554;42.652;23.364;2023-04-05T02:22:01;94149.84;;;0.70;76.20
33191;BME280;19554;42.652;23.364;2023-04-05T02:24:27;94152.31;;;0.77;76.41
33191;BME280;19554;42.652;23.364;2023-04-05T02:26:52;94116.00;;;0.57;76.19
33191;BME280;19554;42.652;23.364;2023-04-05T02:29:17;94162.69;;;0.84;76.09
33191;BME280;19554;42.652;23.364;2023-04-05T02:31:43;94122.38;;;0.61;76.26
33191;BME280;19554;42.652;23.364;2023-04-05T02:34:08;94155.25;;;0.81;76.25
33191;BME280;19554;42.652;23.364;2023-04-05T02:36:35;94157.34;;;0.79;76.26
33191;BME280;19554;42.652;23.364;2023-04-05T02:39:01;94040.19;;;-0.02;76.51
33191;BME280;19554;42.652;23.364;2023-04-05T02:41:26;94151.06;;;0.80;76.51
33191;BME280;19554;42.652;23.364;2023-04-05T02:43:52;94126.03;;;0.60;76.66
33191;BME280;19554;42.652;23.364;2023-04-05T02:46:17;94081.59;;;0.25;76.35
33191;BME280;19554;42.652;23.364;2023-04-05T02:48:44;94144.06;;;0.68;76.70
33191;BME280;19554;42.652;23.364;2023-04-05T02:51:09;94133.84;;;0.55;76.73
33191;BME280;19554;42.652;23.364;2023-04-05T02:53:35;94153.41;;;0.64;76.75
33191;BME280;19554;42.652;23.364;2023-04-05T02:56:00;94148.16;;;0.64;76.99
33191;BME280;19554;42.652;23.364;2023-04-05T02:58:26;94140.84;;;0.66;76.87
33191;BME280;19554;42.652;23.364;2023-04-05T03:00:51;94153.41;;;0.64;76.47
33191;BME280;19554;42.652;23.364;2023-04-05T03:03:19;94104.16;;;0.38;77.12
33191;BME280;19554;42.652;23.364;2023-04-05T03:05:45;94072.38;;;0.22;76.85
33191;BME280;19554;42.652;23.364;2023-04-05T03:08:12;94128.19;;;0.63;76.70
33191;BME280;19554;42.652;23.364;2023-04-05T03:10:46;94120.63;;;0.67;76.51
33191;BME280;19554;42.652;23.364;2023-04-05T03:13:12;94148.13;;;0.93;76.60
33191;BME280;19554;42.652;23.364;2023-04-05T03:15:38;94141.56;;;0.95;76.20
33191;BME280;19554;42.652;23.364;2023-04-05T03:18:03;94128.28;;;0.85;76.31
33191;BME280;19554;42.652;23.364;2023-04-05T03:20:29;94143.97;;;0.97;76.11
33191;BME280;19554;42.652;23.364;2023-04-05T03:22:54;94081.31;;;0.55;75.88
33191;BME280;19554;42.652;23.364;2023-04-05T03:25:20;94130.19;;;0.90;76.02
33191;BME280;19554;42.652;23.364;2023-04-05T03:27:45;94149.44;;;0.95;76.06
33191;BME280;19554;42.652;23.364;2023-04-05T03:30:11;94132.25;;;0.88;75.89
33191;BME280;19554;42.652;23.364;2023-04-05T03:32:36;94138.00;;;0.85;76.10
33191;BME280;19554;42.652;23.364;2023-04-05T03:35:02;94135.28;;;0.80;76.32
33191;BME280;19554;42.652;23.364;2023-04-05T03:37:27;94153.59;;;0.91;76.62
33191;BME280;19554;42.652;23.364;2023-04-05T03:39:53;94118.78;;;0.67;76.43
33191;BME280;19554;42.652;23.364;2023-04-05T03:42:18;94146.59;;;0.97;76.87
33191;BME280;19554;42.652;23.364;2023-04-05T03:44:43;94145.22;;;0.78;77.17
33191;BME280;19554;42.652;23.364;2023-04-05T03:47:09;94158.00;;;0.86;77.94
33191;BME280;19554;42.652;23.364;2023-04-05T03:49:35;94160.78;;;0.79;78.76
33191;BME280;19554;42.652;23.364;2023-04-05T03:52:00;94163.63;;;0.78;79.20
33191;BME280;19554;42.652;23.364;2023-04-05T03:54:25;94166.25;;;0.78;79.73
33191;BME280;19554;42.652;23.364;2023-04-05T03:56:51;94131.28;;;0.60;79.35
33191;BME280;19554;42.652;23.364;2023-04-05T03:59:16;94148.81;;;0.71;79.64
33191;BME280;19554;42.652;23.364;2023-04-05T04:01:42;94170.63;;;0.89;79.20
33191;BME280;19554;42.652;23.364;2023-04-05T04:04:08;94184.34;;;0.91;79.42
33191;BME280;19554;42.652;23.364;2023-04-05T04:06:34;94152.63;;;0.81;79.30
33191;BME280;19554;42.652;23.364;2023-04-05T04:09:01;94183.06;;;0.93;79.56
33191;BME280;19554;42.652;23.364;2023-04-05T04:11:27;94181.97;;;0.89;79.94
33191;BME280;19554;42.652;23.364;2023-04-05T04:13:52;94131.59;;;0.47;80.67
33191;BME280;19554;42.652;23.364;2023-04-05T04:16:18;94127.44;;;0.51;81.01
33191;BME280;19554;42.652;23.364;2023-04-05T04:18:43;94132.22;;;0.54;81.17
33191;BME280;19554;42.652;23.364;2023-04-05T04:21:08;94157.25;;;0.74;81.25
33191;BME280;19554;42.652;23.364;2023-04-05T04:23:34;94175.34;;;0.87;80.85
33191;BME280;19554;42.652;23.364;2023-04-05T04:26:02;94181.78;;;0.79;80.52
33191;BME280;19554;42.652;23.364;2023-04-05T04:28:28;94177.97;;;0.87;80.71
33191;BME280;19554;42.652;23.364;2023-04-05T04:30:54;94071.41;;;0.12;80.50
33191;BME280;19554;42.652;23.364;2023-04-05T04:33:19;94151.59;;;0.82;80.53
33191;BME280;19554;42.652;23.364;2023-04-05T04:35:44;94184.16;;;0.81;80.32
33191;BME280;19554;42.652;23.364;2023-04-05T04:38:11;94182.19;;;0.88;80.64
33191;BME280;19554;42.652;23.364;2023-04-05T04:40:43;94192.22;;;0.91;80.38
33191;BME280;19554;42.652;23.364;2023-04-05T04:43:14;94149.31;;;0.68;80.13
33191;BME280;19554;42.652;23.364;2023-04-05T04:45:46;94111.69;;;0.51;79.93
33191;BME280;19554;42.652;23.364;2023-04-05T04:48:13;94189.28;;;1.04;80.01
33191;BME280;19554;42.652;23.364;2023-04-05T04:50:44;94190.78;;;1.00;79.65
33191;BME280;19554;42.652;23.364;2023-04-05T04:53:10;94182.13;;;1.00;79.93
33191;BME280;19554;42.652;23.364;2023-04-05T04:55:37;94187.69;;;1.03;79.53
33191;BME280;19554;42.652;23.364;2023-04-05T04:58:02;94187.22;;;1.06;79.49
33191;BME280;19554;42.652;23.364;2023-04-05T05:00:35;94198.22;;;1.03;79.12
33191;BME280;19554;42.652;23.364;2023-04-05T05:03:01;94198.09;;;0.98;78.62
33191;BME280;19554;42.652;23.364;2023-04-05T05:05:27;94198.06;;;1.10;77.91
33191;BME280;19554;42.652;23.364;2023-04-05T05:07:52;94194.06;;;1.07;76.76
33191;BME280;19554;42.652;23.364;2023-04-05T05:10:18;94190.69;;;0.95;76.62
33191;BME280;19554;42.652;23.364;2023-04-05T05:12:44;94210.59;;;0.91;76.58
33191;BME280;19554;42.652;23.364;2023-04-05T05:15:10;94124.28;;;0.49;76.99
33191;BME280;19554;42.652;23.364;2023-04-05T05:17:36;94199.94;;;0.98;76.81
33191;BME280;19554;42.652;23.364;2023-04-05T05:20:03;94200.81;;;0.86;77.33
33191;BME280;19554;42.652;23.364;2023-04-05T05:22:36;94200.09;;;0.91;77.38
33191;BME280;19554;42.652;23.364;2023-04-05T05:25:03;94197.06;;;0.82;77.19
33191;BME280;19554;42.652;23.364;2023-04-05T05:27:29;94206.28;;;0.85;77.99
33191;BME280;19554;42.652;23.364;2023-04-05T05:29:55;94206.28;;;0.85;77.75
33191;BME280;19554;42.652;23.364;2023-04-05T05:32:20;94207.56;;;0.99;77.39
33191;BME280;19554;42.652;23.364;2023-04-05T05:34:47;94203.47;;;1.03;76.71
33191;BME280;19554;42.652;23.364;2023-04-05T05:37:12;94192.94;;;1.03;75.71
33191;BME280;19554;42.652;23.364;2023-04-05T05:39:38;94129.06;;;0.52;75.06
33191;BME280;19554;42.652;23.364;2023-04-05T05:42:04;94202.50;;;1.09;76.01
33191;BME280;19554;42.652;23.364;2023-04-05T05:44:29;94195.13;;;1.23;75.91
33191;BME280;19554;42.652;23.364;2023-04-05T05:46:55;94174.00;;;1.01;75.79
33191;BME280;19554;42.652;23.364;2023-04-05T05:49:21;94170.00;;;0.99;75.73
33191;BME280;19554;42.652;23.364;2023-04-05T05:51:48;94196.28;;;1.32;75.83
33191;BME280;19554;42.652;23.364;2023-04-05T05:54:13;94161.72;;;1.24;75.62
33191;BME280;19554;42.652;23.364;2023-04-05T05:56:39;94161.72;;;1.24;75.29
33191;BME280;19554;42.652;23.364;2023-04-05T05:59:04;94161.88;;;1.34;74.24
33191;BME280;19554;42.652;23.364;2023-04-05T06:01:31;94167.44;;;1.54;74.08
33191;BME280;19554;42.652;23.364;2023-04-05T06:03:58;94185.91;;;1.59;73.89
33191;BME280;19554;42.652;23.364;2023-04-05T06:06:24;94193.88;;;1.64;73.79
33191;BME280;19554;42.652;23.364;2023-04-05T06:08:50;94170.59;;;1.56;73.44
33191;BME280;19554;42.652;23.364;2023-04-05T06:11:17;94194.03;;;1.75;73.48
33191;BME280;19554;42.652;23.364;2023-04-05T06:13:42;94142.50;;;1.40;72.54
33191;BME280;19554;42.652;23.364;2023-04-05T06:16:08;94200.56;;;1.72;71.85
33191;BME280;19554;42.652;23.364;2023-04-05T06:18:33;94201.09;;;1.74;71.55
33191;BME280;19554;42.652;23.364;2023-04-05T06:20:58;94202.75;;;1.80;71.91
33191;BME280;19554;42.652;23.364;2023-04-05T06:23:24;94202.41;;;1.94;71.55
33191;BME280;19554;42.652;23.364;2023-04-05T06:25:49;94201.75;;;2.03;71.13
33191;BME280;19554;42.652;23.364;2023-04-05T06:28:15;94206.84;;;2.10;70.69
33191;BME280;19554;42.652;23.364;2023-04-05T06:30:40;94207.06;;;2.08;70.13
33191;BME280;19554;42.652;23.364;2023-04-05T06:33:06;94206.22;;;2.03;70.05
33191;BME280;19554;42.652;23.364;2023-04-05T06:35:31;94209.69;;;2.08;69.80
33191;BME280;19554;42.652;23.364;2023-04-05T06:37:56;94210.53;;;2.09;69.57
33191;BME280;19554;42.652;23.364;2023-04-05T06:40:22;94208.38;;;2.06;68.88
33191;BME280;19554;42.652;23.364;2023-04-05T06:42:47;94218.13;;;2.05;69.39
33191;BME280;19554;42.652;23.364;2023-04-05T06:45:12;94211.19;;;1.99;69.05
33191;BME280;19554;42.652;23.364;2023-04-05T06:47:39;94223.00;;;2.19;68.81
33191;BME280;19554;42.652;23.364;2023-04-05T06:50:07;94221.50;;;2.23;69.04
33191;BME280;19554;42.652;23.364;2023-04-05T06:52:33;94219.69;;;2.28;68.87
33191;BME280;19554;42.652;23.364;2023-04-05T06:54:59;94227.38;;;2.30;68.43
33191;BME280;19554;42.652;23.364;2023-04-05T06:57:24;94229.25;;;2.34;68.07
33191;BME280;19554;42.652;23.364;2023-04-05T06:59:53;94227.22;;;2.20;67.04
33191;BME280;19554;42.652;23.364;2023-04-05T07:02:19;94237.59;;;2.26;67.06
33191;BME280;19554;42.652;23.364;2023-04-05T07:04:45;94248.25;;;2.36;66.72
33191;BME280;19554;42.652;23.364;2023-04-05T07:07:11;94246.63;;;2.35;66.50
33191;BME280;19554;42.652;23.364;2023-04-05T07:09:37;94152.34;;;1.66;66.59
33191;BME280;19554;42.652;23.364;2023-04-05T07:12:04;94229.31;;;2.18;65.83
33191;BME280;19554;42.652;23.364;2023-04-05T07:14:34;94157.84;;;1.65;66.64
33191;BME280;19554;42.652;23.364;2023-04-05T07:17:04;94237.63;;;2.09;66.15
33191;BME280;19554;42.652;23.364;2023-04-05T07:19:30;94219.25;;;2.14;66.64
33191;BME280;19554;42.652;23.364;2023-04-05T07:21:56;94149.56;;;1.56;66.12
33191;BME280;19554;42.652;23.364;2023-04-05T07:24:21;94269.13;;;2.43;66.61
33191;BME280;19554;42.652;23.364;2023-04-05T07:26:47;94268.84;;;2.40;65.39
33191;BME280;19554;42.652;23.364;2023-04-05T07:29:12;94266.72;;;2.42;64.99
33191;BME280;19554;42.652;23.364;2023-04-05T07:31:38;94262.25;;;2.42;65.38
33191;BME280;19554;42.652;23.364;2023-04-05T07:34:04;94261.16;;;2.38;65.10
33191;BME280;19554;42.652;23.364;2023-04-05T07:36:30;94260.00;;;2.51;65.67
33191;BME280;19554;42.652;23.364;2023-04-05T07:38:56;94265.56;;;2.54;65.92
33191;BME280;19554;42.652;23.364;2023-04-05T07:41:24;94169.72;;;1.89;64.82
33191;BME280;19554;42.652;23.364;2023-04-05T07:43:50;94216.09;;;2.12;64.56
33191;BME280;19554;42.652;23.364;2023-04-05T07:46:15;94253.34;;;2.43;64.31
33191;BME280;19554;42.652;23.364;2023-04-05T07:48:41;94278.75;;;2.54;65.12
33191;BME280;19554;42.652;23.364;2023-04-05T07:51:07;94284.06;;;2.59;65.23
33191;BME280;19554;42.652;23.364;2023-04-05T07:53:35;94287.56;;;2.43;64.79
33191;BME280;19554;42.652;23.364;2023-04-05T07:56:05;94286.88;;;2.31;64.95
33191;BME280;19554;42.652;23.364;2023-04-05T07:58:31;94280.91;;;2.19;65.48
33191;BME280;19554;42.652;23.364;2023-04-05T08:01:03;94251.16;;;1.96;65.35
33191;BME280;19554;42.652;23.364;2023-04-05T08:03:30;94279.59;;;2.16;64.89
33191;BME280;19554;42.652;23.364;2023-04-05T08:05:56;94275.28;;;2.32;65.41
33191;BME280;19554;42.652;23.364;2023-04-05T08:08:23;94294.84;;;2.36;65.24
33191;BME280;19554;42.652;23.364;2023-04-05T08:10:48;94278.94;;;2.26;64.80
33191;BME280;19554;42.652;23.364;2023-04-05T08:13:14;94283.19;;;2.10;64.27
33191;BME280;19554;42.652;23.364;2023-04-05T08:15:40;94289.31;;;2.16;64.46
33191;BME280;19554;42.652;23.364;2023-04-05T08:18:05;94291.25;;;2.03;64.89
33191;BME280;19554;42.652;23.364;2023-04-05T08:20:31;94303.50;;;2.14;64.38
33191;BME280;19554;42.652;23.364;2023-04-05T08:22:56;94302.66;;;2.09;64.66
33191;BME280;19554;42.652;23.364;2023-04-05T08:25:22;94306.59;;;2.28;65.33
33191;BME280;19554;42.652;23.364;2023-04-05T08:27:47;94304.88;;;2.39;64.91
33191;BME280;19554;42.652;23.364;2023-04-05T08:30:12;94196.09;;;1.73;64.43
33191;BME280;19554;42.652;23.364;2023-04-05T08:32:38;94296.75;;;2.41;64.89
33191;BME280;19554;42.652;23.364;2023-04-05T08:35:04;94303.88;;;2.40;64.49
33191;BME280;19554;42.652;23.364;2023-04-05T08:37:33;94314.56;;;2.33;64.68
33191;BME280;19554;42.652;23.364;2023-04-05T08:39:59;94260.75;;;2.07;65.34
33191;BME280;19554;42.652;23.364;2023-04-05T08:42:33;94301.34;;;2.50;65.10
33191;BME280;19554;42.652;23.364;2023-04-05T08:45:02;94309.00;;;2.52;64.26
33191;BME280;19554;42.652;23.364;2023-04-05T08:47:28;94319.53;;;2.52;64.29
33191;BME280;19554;42.652;23.364;2023-04-05T08:49:54;94277.44;;;2.35;64.89
33191;BME280;19554;42.652;23.364;2023-04-05T08:52:20;94327.09;;;2.43;65.12
33191;BME280;19554;42.652;23.364;2023-04-05T08:54:45;94326.22;;;2.37;65.60
33191;BME280;19554;42.652;23.364;2023-04-05T08:57:11;94336.16;;;2.35;65.54
33191;BME280;19554;42.652;23.364;2023-04-05T08:59:38;94318.56;;;2.36;65.10
33191;BME280;19554;42.652;23.364;2023-04-05T09:02:17;94339.50;;;2.48;65.13
33191;BME280;19554;42.652;23.364;2023-04-05T09:04:44;94337.28;;;2.56;65.28
33191;BME280;19554;42.652;23.364;2023-04-05T09:07:14;94328.44;;;2.68;65.50
33191;BME280;19554;42.652;23.364;2023-04-05T09:09:46;94331.38;;;2.93;65.29
33191;BME280;19554;42.652;23.364;2023-04-05T09:12:12;94333.59;;;3.01;65.14
33191;BME280;19554;42.652;23.364;2023-04-05T09:14:38;94316.50;;;2.82;64.60
33191;BME280;19554;42.652;23.364;2023-04-05T09:17:05;94330.78;;;2.64;65.16
33191;BME280;19554;42.652;23.364;2023-04-05T09:19:30;94323.88;;;2.41;65.05
33191;BME280;19554;42.652;23.364;2023-04-05T09:21:59;94335.78;;;2.66;65.75
33191;BME280;19554;42.652;23.364;2023-04-05T09:24:37;94330.63;;;2.76;65.83
33191;BME280;19554;42.652;23.364;2023-04-05T09:27:14;94243.88;;;2.03;65.58
33191;BME280;19554;42.652;23.364;2023-04-05T09:29:41;94343.81;;;2.54;66.08
33191;BME280;19554;42.652;23.364;2023-04-05T09:32:08;94262.84;;;2.05;66.67
33191;BME280;19554;42.652;23.364;2023-04-05T09:34:35;94324.59;;;2.53;66.49
33191;BME280;19554;42.652;23.364;2023-04-05T09:37:21;94328.84;;;2.59;65.59
33191;BME280;19554;42.652;23.364;2023-04-05T09:39:49;94325.59;;;2.52;65.42
33191;BME280;19554;42.652;23.364;2023-04-05T09:42:17;94328.50;;;2.51;65.59
33191;BME280;19554;42.652;23.364;2023-04-05T09:44:57;94330.28;;;2.67;65.46
33191;BME280;19554;42.652;23.364;2023-04-05T09:47:27;94325.97;;;2.83;64.92
33191;BME280;19554;42.652;23.364;2023-04-05T09:50:01;94321.56;;;2.89;64.26
33191;BME280;19554;42.652;23.364;2023-04-05T09:52:31;94318.56;;;2.80;64.37
33191;BME280;19554;42.652;23.364;2023-04-05T09:55:00;94325.13;;;2.99;64.34
33191;BME280;19554;42.652;23.364;2023-04-05T09:57:26;94292.59;;;3.16;63.75
33191;BME280;19554;42.652;23.364;2023-04-05T09:59:53;94317.78;;;3.28;63.18
33191;BME280;19554;42.652;23.364;2023-04-05T10:02:20;94319.06;;;3.26;63.36
33191;BME280;19554;42.652;23.364;2023-04-05T10:04:46;94328.03;;;3.25;62.45
33191;BME280;19554;42.652;23.364;2023-04-05T10:07:14;94311.66;;;3.23;62.09
33191;BME280;19554;42.652;23.364;2023-04-05T10:09:42;94313.00;;;3.25;62.10
33191;BME280;19554;42.652;23.364;2023-04-05T10:12:09;94213.38;;;2.51;61.85
33191;BME280;19554;42.652;23.364;2023-04-05T10:14:35;94329.63;;;3.26;62.32
33191;BME280;19554;42.652;23.364;2023-04-05T10:17:09;94337.34;;;3.11;61.75
33191;BME280;19554;42.652;23.364;2023-04-05T10:25:23;94335.88;;;2.71;60.68
33191;BME280;19554;42.652;23.364;2023-04-05T10:27:54;94323.22;;;2.73;61.20
33191;BME280;19554;42.652;23.364;2023-04-05T10:30:34;94328.00;;;2.54;61.17
33191;BME280;19554;42.652;23.364;2023-04-05T10:33:09;94319.94;;;2.60;61.89
33191;BME280;19554;42.652;23.364;2023-04-05T10:38:21;94332.91;;;2.67;60.88
33191;BME280;19554;42.652;23.364;2023-04-05T10:40:48;94335.13;;;2.53;60.95
33191;BME280;19554;42.652;23.364;2023-04-05T10:43:23;94338.78;;;2.52;61.33
33191;BME280;19554;42.652;23.364;2023-04-05T10:45:52;94328.94;;;2.65;61.64
33191;BME280;19554;42.652;23.364;2023-04-05T10:48:27;94339.03;;;2.73;61.68
33191;BME280;19554;42.652;23.364;2023-04-05T10:50:56;94337.63;;;2.87;60.65
33191;BME280;19554;42.652;23.364;2023-04-05T10:53:24;94319.50;;;2.91;61.08
33191;BME280;19554;42.652;23.364;2023-04-05T10:55:49;94345.28;;;3.11;60.35
33191;BME280;19554;42.652;23.364;2023-04-05T10:58:16;94339.81;;;3.17;60.03
33191;BME280;19554;42.652;23.364;2023-04-05T11:00:42;94278.41;;;2.73;59.97
33191;BME280;19554;42.652;23.364;2023-04-05T11:03:08;94334.69;;;3.05;59.70
33191;BME280;19554;42.652;23.364;2023-04-05T11:05:35;94347.03;;;3.27;59.47
33191;BME280;19554;42.652;23.364;2023-04-05T11:08:08;94292.81;;;2.87;59.52
33191;BME280;19554;42.652;23.364;2023-04-05T11:10:36;94346.91;;;3.17;59.68
33191;BME280;19554;42.652;23.364;2023-04-05T11:13:04;94249.50;;;2.56;60.24
33191;BME280;19554;42.652;23.364;2023-04-05T11:15:31;94345.94;;;3.23;60.34
33191;BME280;19554;42.652;23.364;2023-04-05T11:18:03;94341.22;;;3.25;59.79
33191;BME280;19554;42.652;23.364;2023-04-05T11:23:10;94325.03;;;3.16;59.66
33191;BME280;19554;42.652;23.364;2023-04-05T11:25:37;94342.34;;;3.34;59.93
33191;BME280;19554;42.652;23.364;2023-04-05T11:28:06;94350.44;;;3.49;59.83
33191;BME280;19554;42.652;23.364;2023-04-05T11:30:47;94347.69;;;3.39;58.80
33191;BME280;19554;42.652;23.364;2023-04-05T11:33:34;94355.88;;;3.16;58.79
33191;BME280;19554;42.652;23.364;2023-04-05T11:36:00;94343.75;;;3.15;59.23
33191;BME280;19554;42.652;23.364;2023-04-05T11:38:29;94352.28;;;3.22;58.95
33191;BME280;19554;42.652;23.364;2023-04-05T11:41:12;94355.69;;;3.22;59.16
33191;BME280;19554;42.652;23.364;2023-04-05T11:43:42;94345.94;;;3.23;59.26
33191;BME280;19554;42.652;23.364;2023-04-05T11:46:07;94350.63;;;3.16;59.07
33191;BME280;19554;42.652;23.364;2023-04-05T11:48:33;94346.13;;;3.16;59.25
33191;BME280;19554;42.652;23.364;2023-04-05T11:50:59;94252.84;;;2.46;59.25
33191;BME280;19554;42.652;23.364;2023-04-05T11:53:24;94340.56;;;3.13;59.40
33191;BME280;19554;42.652;23.364;2023-04-05T11:55:50;94341.53;;;3.06;59.75
33191;BME280;19554;42.652;23.364;2023-04-05T12:00:44;94345.00;;;3.34;58.84
33191;BME280;19554;42.652;23.364;2023-04-05T12:03:13;94274.81;;;2.79;58.40
33191;BME280;19554;42.652;23.364;2023-04-05T12:08:11;94349.13;;;3.52;59.38
33191;BME280;19554;42.652;23.364;2023-04-05T12:10:37;94336.28;;;3.61;58.73
33191;BME280;19554;42.652;23.364;2023-04-05T12:13:02;94317.84;;;3.66;58.33
33191;BME280;19554;42.652;23.364;2023-04-05T12:15:27;94321.03;;;3.68;58.07
33191;BME280;19554;42.652;23.364;2023-04-05T12:17:53;94343.31;;;3.82;58.37
33191;BME280;19554;42.652;23.364;2023-04-05T12:20:23;94350.22;;;3.83;58.28
33191;BME280;19554;42.652;23.364;2023-04-05T12:22:51;94327.22;;;3.51;58.81
33191;BME280;19554;42.652;23.364;2023-04-05T12:25:17;94343.13;;;3.56;59.31
33191;BME280;19554;42.652;23.364;2023-04-05T12:27:44;94339.88;;;3.49;60.04
33191;BME280;19554;42.652;23.364;2023-04-05T12:30:14;94345.84;;;3.67;59.88
33191;BME280;19554;42.652;23.364;2023-04-05T12:37:41;94342.31;;;3.56;60.07
33191;BME280;19554;42.652;23.364;2023-04-05T12:40:07;94348.31;;;3.51;60.64
33191;BME280;19554;42.652;23.364;2023-04-05T12:42:34;94354.19;;;3.59;60.60
33191;BME280;19554;42.652;23.364;2023-04-05T12:45:08;94333.09;;;3.59;61.10
33191;BME280;19554;42.652;23.364;2023-04-05T12:47:34;94352.38;;;3.59;60.77
33191;BME280;19554;42.652;23.364;2023-04-05T12:50:11;94344.06;;;3.45;61.03
33191;BME280;19554;42.652;23.364;2023-04-05T12:52:36;94351.50;;;3.26;61.36
33191;BME280;19554;42.652;23.364;2023-04-05T12:55:02;94349.63;;;3.22;61.31
33191;BME280;19554;42.652;23.364;2023-04-05T12:57:30;94348.00;;;3.21;60.99
33191;BME280;19554;42.652;23.364;2023-04-05T12:59:56;94352.19;;;3.17;61.45
33191;BME280;19554;42.652;23.364;2023-04-05T13:02:21;94352.28;;;3.22;61.58
33191;BME280;19554;42.652;23.364;2023-04-05T13:04:47;94361.16;;;3.16;61.70
33191;BME280;19554;42.652;23.364;2023-04-05T13:07:13;94356.50;;;3.23;61.41
33191;BME280;19554;42.652;23.364;2023-04-05T13:09:39;94364.00;;;3.36;61.37
33191;BME280;19554;42.652;23.364;2023-04-05T13:12:04;94351.34;;;3.38;60.87
33191;BME280;19554;42.652;23.364;2023-04-05T13:14:30;94324.78;;;3.18;59.64
33191;BME280;19554;42.652;23.364;2023-04-05T13:16:55;94367.06;;;3.50;60.02
33191;BME280;19554;42.652;23.364;2023-04-05T13:19:21;94365.19;;;3.45;59.34
33191;BME280;19554;42.652;23.364;2023-04-05T13:21:46;94366.19;;;3.44;59.13
33191;BME280;19554;42.652;23.364;2023-04-05T13:24:11;94359.06;;;3.45;58.68
33191;BME280;19554;42.652;23.364;2023-04-05T13:26:37;94366.06;;;3.29;58.58
33191;BME280;19554;42.652;23.364;2023-04-05T13:29:02;94352.88;;;3.29;59.02
33191;BME280;19554;42.652;23.364;2023-04-05T13:31:28;94362.75;;;3.17;59.37
33191;BME280;19554;42.652;23.364;2023-04-05T13:33:53;94332.97;;;2.94;59.79